sensor_id;sensor_type;location;lat;lon;timestamp;P1;durP1;ratioP1;P2;durP2;ratioP2
22284;SDS011;11311;52.192;20.900;2022-11-09T00:01:38;51.25;;;35.47;;
22284;SDS011;11311;52.192;20.900;2022-11-09T00:04:09;52.67;;;36.20;;
22284;SDS011;11311;52.192;20.900;2022-11-09T00:06:38;51.17;;;35.53;;
22284;SDS011;11311;52.192;20.900;2022-11-09T00:09:07;46.25;;;33.38;;
22284;SDS011;11311;52.192;20.900;2022-11-09T00:11:36;51.57;;;29.60;;
22284;SDS011;11311;52.192;20.900;2022-11-09T00:14:05;47.83;;;36.03;;
22284;SDS011;11311;52.192;20.900;2022-11-09T00:16:34;48.97;;;33.60;;
22284;SDS011;11311;52.192;20.900;2022-11-09T00:19:03;39.40;;;27.55;;
22284;SDS011;11311;52.192;20.900;2022-11-09T00:21:33;52.92;;;34.75;;
22284;SDS011;11311;52.192;20.900;2022-11-09T00:24:02;48.55;;;31.58;;
22284;SDS011;11311;52.192;20.900;2022-11-09T00:26:31;47.03;;;33.25;;
22284;SDS011;11311;52.192;20.900;2022-11-09T00:29:00;47.63;;;37.10;;
22284;SDS011;11311;52.192;20.900;2022-11-09T00:31:29;49.58;;;37.25;;
22284;SDS011;11311;52.192;20.900;2022-11-09T00:33:58;49.85;;;31.55;;
22284;SDS011;11311;52.192;20.900;2022-11-09T00:36:27;42.20;;;30.20;;
22284;SDS011;11311;52.192;20.900;2022-11-09T00:38:59;52.50;;;34.30;;
22284;SDS011;11311;52.192;20.900;2022-11-09T00:41:31;48.33;;;31.80;;
22284;SDS011;11311;52.192;20.900;2022-11-09T00:44:00;38.35;;;29.58;;
22284;SDS011;11311;52.192;20.900;2022-11-09T00:46:29;41.33;;;31.38;;
22284;SDS011;11311;52.192;20.900;2022-11-09T00:48:58;46.95;;;29.73;;
22284;SDS011;11311;52.192;20.900;2022-11-09T00:51:27;46.55;;;30.73;;
22284;SDS011;11311;52.192;20.900;2022-11-09T00:53:56;40.53;;;27.73;;
22284;SDS011;11311;52.192;20.900;2022-11-09T00:56:26;40.08;;;31.02;;
22284;SDS011;11311;52.192;20.900;2022-11-09T00:58:55;38.22;;;30.55;;
22284;SDS011;11311;52.192;20.900;2022-11-09T01:01:25;45.55;;;25.00;;
22284;SDS011;11311;52.192;20.900;2022-11-09T01:03:54;40.50;;;26.80;;
22284;SDS011;11311;52.192;20.900;2022-11-09T01:08:53;37.22;;;29.10;;
22284;SDS011;11311;52.192;20.900;2022-11-09T01:11:22;41.85;;;24.83;;
22284;SDS011;11311;52.192;20.900;2022-11-09T01:13:53;33.53;;;24.33;;
22284;SDS011;11311;52.192;20.900;2022-11-09T01:16:23;42.05;;;28.13;;
22284;SDS011;11311;52.192;20.900;2022-11-09T01:18:52;42.78;;;27.83;;
22284;SDS011;11311;52.192;20.900;2022-11-09T01:21:23;36.42;;;26.35;;
22284;SDS011;11311;52.192;20.900;2022-11-09T01:23:53;36.17;;;27.40;;
22284;SDS011;11311;52.192;20.900;2022-11-09T01:26:22;40.58;;;23.98;;
22284;SDS011;11311;52.192;20.900;2022-11-09T01:28:51;43.17;;;28.77;;
22284;SDS011;11311;52.192;20.900;2022-11-09T01:31:21;44.58;;;28.77;;
22284;SDS011;11311;52.192;20.900;2022-11-09T01:33:50;41.53;;;27.27;;
22284;SDS011;11311;52.192;20.900;2022-11-09T01:36:19;39.05;;;26.33;;
22284;SDS011;11311;52.192;20.900;2022-11-09T01:38:49;43.90;;;30.42;;
22284;SDS011;11311;52.192;20.900;2022-11-09T01:41:19;40.28;;;27.90;;
22284;SDS011;11311;52.192;20.900;2022-11-09T01:46:47;46.70;;;32.42;;
22284;SDS011;11311;52.192;20.900;2022-11-09T01:49:20;43.00;;;29.30;;
22284;SDS011;11311;52.192;20.900;2022-11-09T01:51:52;39.53;;;27.38;;
22284;SDS011;11311;52.192;20.900;2022-11-09T01:54:23;41.58;;;29.75;;
22284;SDS011;11311;52.192;20.900;2022-11-09T01:56:57;44.75;;;29.85;;
22284;SDS011;11311;52.192;20.900;2022-11-09T01:59:29;39.97;;;25.77;;
22284;SDS011;11311;52.192;20.900;2022-11-09T02:02:01;37.50;;;22.05;;
22284;SDS011;11311;52.192;20.900;2022-11-09T02:04:31;45.63;;;29.63;;
22284;SDS011;11311;52.192;20.900;2022-11-09T02:07:02;39.38;;;25.75;;
22284;SDS011;11311;52.192;20.900;2022-11-09T02:09:33;34.92;;;25.73;;
22284;SDS011;11311;52.192;20.900;2022-11-09T02:12:06;45.25;;;30.02;;
22284;SDS011;11311;52.192;20.900;2022-11-09T02:14:35;41.07;;;29.63;;
22284;SDS011;11311;52.192;20.900;2022-11-09T02:17:07;41.50;;;25.10;;
22284;SDS011;11311;52.192;20.900;2022-11-09T02:19:35;52.50;;;21.73;;
22284;SDS011;11311;52.192;20.900;2022-11-09T02:22:05;43.92;;;27.65;;
22284;SDS011;11311;52.192;20.900;2022-11-09T02:24:34;37.58;;;26.17;;
22284;SDS011;11311;52.192;20.900;2022-11-09T02:27:03;43.10;;;29.50;;
22284;SDS011;11311;52.192;20.900;2022-11-09T02:29:34;40.57;;;24.30;;
22284;SDS011;11311;52.192;20.900;2022-11-09T02:32:05;49.10;;;33.15;;
22284;SDS011;11311;52.192;20.900;2022-11-09T02:34:35;42.08;;;29.55;;
22284;SDS011;11311;52.192;20.900;2022-11-09T02:37:06;39.30;;;26.75;;
22284;SDS011;11311;52.192;20.900;2022-11-09T02:39:35;46.53;;;31.15;;
22284;SDS011;11311;52.192;20.900;2022-11-09T02:42:08;53.08;;;34.08;;
22284;SDS011;11311;52.192;20.900;2022-11-09T02:44:47;52.92;;;32.05;;
22284;SDS011;11311;52.192;20.900;2022-11-09T02:47:18;30.42;;;19.75;;
22284;SDS011;11311;52.192;20.900;2022-11-09T02:49:46;46.85;;;29.08;;
22284;SDS011;11311;52.192;20.900;2022-11-09T02:52:17;55.17;;;31.63;;
22284;SDS011;11311;52.192;20.900;2022-11-09T02:57:16;43.08;;;29.38;;
22284;SDS011;11311;52.192;20.900;2022-11-09T02:59:44;37.28;;;24.60;;
22284;SDS011;11311;52.192;20.900;2022-11-09T03:02:13;47.33;;;28.00;;
22284;SDS011;11311;52.192;20.900;2022-11-09T03:04:42;36.63;;;20.92;;
22284;SDS011;11311;52.192;20.900;2022-11-09T03:07:11;51.97;;;30.98;;
22284;SDS011;11311;52.192;20.900;2022-11-09T03:09:42;47.95;;;33.55;;
22284;SDS011;11311;52.192;20.900;2022-11-09T03:12:12;41.08;;;25.23;;
22284;SDS011;11311;52.192;20.900;2022-11-09T03:15:08;41.85;;;27.35;;
22284;SDS011;11311;52.192;20.900;2022-11-09T03:17:41;50.47;;;27.48;;
22284;SDS011;11311;52.192;20.900;2022-11-09T03:20:10;43.42;;;26.60;;
22284;SDS011;11311;52.192;20.900;2022-11-09T03:22:40;58.65;;;32.88;;
22284;SDS011;11311;52.192;20.900;2022-11-09T03:25:11;56.53;;;33.88;;
22284;SDS011;11311;52.192;20.900;2022-11-09T03:30:08;49.22;;;30.83;;
22284;SDS011;11311;52.192;20.900;2022-11-09T03:32:38;34.83;;;19.85;;
22284;SDS011;11311;52.192;20.900;2022-11-09T03:35:10;54.95;;;29.15;;
22284;SDS011;11311;52.192;20.900;2022-11-09T03:37:38;42.65;;;22.23;;
22284;SDS011;11311;52.192;20.900;2022-11-09T03:40:07;42.92;;;26.70;;
22284;SDS011;11311;52.192;20.900;2022-11-09T03:42:43;48.67;;;27.20;;
22284;SDS011;11311;52.192;20.900;2022-11-09T03:45:12;57.78;;;35.83;;
22284;SDS011;11311;52.192;20.900;2022-11-09T03:47:41;53.45;;;30.00;;
22284;SDS011;11311;52.192;20.900;2022-11-09T03:50:11;49.83;;;30.48;;
22284;SDS011;11311;52.192;20.900;2022-11-09T03:52:42;54.08;;;27.58;;
22284;SDS011;11311;52.192;20.900;2022-11-09T03:55:11;48.10;;;22.52;;
22284;SDS011;11311;52.192;20.900;2022-11-09T03:57:44;48.65;;;28.73;;
22284;SDS011;11311;52.192;20.900;2022-11-09T04:00:14;44.65;;;26.55;;
22284;SDS011;11311;52.192;20.900;2022-11-09T04:02:44;46.58;;;31.33;;
22284;SDS011;11311;52.192;20.900;2022-11-09T04:05:13;42.03;;;21.00;;
22284;SDS011;11311;52.192;20.900;2022-11-09T04:07:45;37.70;;;24.63;;
22284;SDS011;11311;52.192;20.900;2022-11-09T04:10:15;39.47;;;22.98;;
22284;SDS011;11311;52.192;20.900;2022-11-09T04:12:46;56.45;;;32.88;;
22284;SDS011;11311;52.192;20.900;2022-11-09T04:17:43;54.42;;;30.77;;
22284;SDS011;11311;52.192;20.900;2022-11-09T04:20:12;54.13;;;35.67;;
22284;SDS011;11311;52.192;20.900;2022-11-09T04:22:41;53.28;;;29.42;;
22284;SDS011;11311;52.192;20.900;2022-11-09T04:25:10;46.33;;;29.48;;
22284;SDS011;11311;52.192;20.900;2022-11-09T04:27:39;44.95;;;26.17;;
22284;SDS011;11311;52.192;20.900;2022-11-09T04:30:09;46.65;;;26.42;;
22284;SDS011;11311;52.192;20.900;2022-11-09T04:32:38;44.45;;;28.17;;
22284;SDS011;11311;52.192;20.900;2022-11-09T04:35:07;58.17;;;36.15;;
22284;SDS011;11311;52.192;20.900;2022-11-09T04:37:36;53.72;;;31.90;;
22284;SDS011;11311;52.192;20.900;2022-11-09T04:40:05;54.38;;;35.58;;
22284;SDS011;11311;52.192;20.900;2022-11-09T04:42:35;61.67;;;39.20;;
22284;SDS011;11311;52.192;20.900;2022-11-09T04:45:04;56.85;;;32.63;;
22284;SDS011;11311;52.192;20.900;2022-11-09T04:47:34;68.43;;;38.25;;
22284;SDS011;11311;52.192;20.900;2022-11-09T04:50:04;66.72;;;37.50;;
22284;SDS011;11311;52.192;20.900;2022-11-09T04:52:33;60.83;;;38.25;;
22284;SDS011;11311;52.192;20.900;2022-11-09T04:55:02;53.72;;;35.90;;
22284;SDS011;11311;52.192;20.900;2022-11-09T04:57:32;58.33;;;37.97;;
22284;SDS011;11311;52.192;20.900;2022-11-09T05:00:01;61.72;;;36.03;;
22284;SDS011;11311;52.192;20.900;2022-11-09T05:02:29;55.88;;;32.15;;
22284;SDS011;11311;52.192;20.900;2022-11-09T05:05:00;57.72;;;38.17;;
22284;SDS011;11311;52.192;20.900;2022-11-09T05:07:28;54.10;;;32.20;;
22284;SDS011;11311;52.192;20.900;2022-11-09T05:09:57;61.50;;;38.78;;
22284;SDS011;11311;52.192;20.900;2022-11-09T05:12:26;66.55;;;37.17;;
22284;SDS011;11311;52.192;20.900;2022-11-09T05:14:55;59.78;;;37.60;;
22284;SDS011;11311;52.192;20.900;2022-11-09T05:17:24;60.65;;;35.60;;
22284;SDS011;11311;52.192;20.900;2022-11-09T05:19:52;65.40;;;39.00;;
22284;SDS011;11311;52.192;20.900;2022-11-09T05:22:23;69.38;;;38.78;;
22284;SDS011;11311;52.192;20.900;2022-11-09T05:25:09;64.00;;;37.72;;
22284;SDS011;11311;52.192;20.900;2022-11-09T05:27:38;64.70;;;38.40;;
22284;SDS011;11311;52.192;20.900;2022-11-09T05:30:07;63.53;;;36.50;;
22284;SDS011;11311;52.192;20.900;2022-11-09T05:32:37;58.67;;;35.65;;
22284;SDS011;11311;52.192;20.900;2022-11-09T05:35:07;64.05;;;37.67;;
22284;SDS011;11311;52.192;20.900;2022-11-09T05:37:40;59.25;;;35.03;;
22284;SDS011;11311;52.192;20.900;2022-11-09T05:42:38;63.95;;;39.78;;
22284;SDS011;11311;52.192;20.900;2022-11-09T05:45:08;62.20;;;37.10;;
22284;SDS011;11311;52.192;20.900;2022-11-09T05:47:58;71.85;;;37.97;;
22284;SDS011;11311;52.192;20.900;2022-11-09T05:50:30;62.30;;;39.65;;
22284;SDS011;11311;52.192;20.900;2022-11-09T05:53:14;63.67;;;38.42;;
22284;SDS011;11311;52.192;20.900;2022-11-09T05:55:43;70.45;;;40.03;;
22284;SDS011;11311;52.192;20.900;2022-11-09T05:58:12;62.63;;;36.28;;
22284;SDS011;11311;52.192;20.900;2022-11-09T06:00:41;70.68;;;38.13;;
22284;SDS011;11311;52.192;20.900;2022-11-09T06:03:10;67.20;;;37.33;;
22284;SDS011;11311;52.192;20.900;2022-11-09T06:05:39;69.72;;;39.30;;
22284;SDS011;11311;52.192;20.900;2022-11-09T06:08:09;65.35;;;34.65;;
22284;SDS011;11311;52.192;20.900;2022-11-09T06:13:08;55.70;;;31.40;;
22284;SDS011;11311;52.192;20.900;2022-11-09T06:15:37;74.22;;;42.53;;
22284;SDS011;11311;52.192;20.900;2022-11-09T06:18:06;65.53;;;36.72;;
22284;SDS011;11311;52.192;20.900;2022-11-09T06:20:35;63.28;;;40.58;;
22284;SDS011;11311;52.192;20.900;2022-11-09T06:23:04;60.20;;;38.42;;
22284;SDS011;11311;52.192;20.900;2022-11-09T06:25:32;66.65;;;35.78;;
22284;SDS011;11311;52.192;20.900;2022-11-09T06:28:03;72.22;;;40.40;;
22284;SDS011;11311;52.192;20.900;2022-11-09T06:33:00;61.05;;;35.00;;
22284;SDS011;11311;52.192;20.900;2022-11-09T06:35:29;68.18;;;40.10;;
22284;SDS011;11311;52.192;20.900;2022-11-09T06:37:58;58.80;;;37.13;;
22284;SDS011;11311;52.192;20.900;2022-11-09T06:40:27;62.20;;;39.05;;
22284;SDS011;11311;52.192;20.900;2022-11-09T06:42:56;60.20;;;39.22;;
22284;SDS011;11311;52.192;20.900;2022-11-09T06:45:27;63.42;;;39.85;;
22284;SDS011;11311;52.192;20.900;2022-11-09T06:47:57;62.38;;;40.38;;
22284;SDS011;11311;52.192;20.900;2022-11-09T06:50:28;55.05;;;35.97;;
22284;SDS011;11311;52.192;20.900;2022-11-09T06:52:58;56.63;;;37.90;;
22284;SDS011;11311;52.192;20.900;2022-11-09T06:55:27;58.15;;;38.58;;
22284;SDS011;11311;52.192;20.900;2022-11-09T06:57:56;59.78;;;34.92;;
22284;SDS011;11311;52.192;20.900;2022-11-09T07:00:27;51.00;;;28.77;;
22284;SDS011;11311;52.192;20.900;2022-11-09T07:05:24;49.92;;;29.80;;
22284;SDS011;11311;52.192;20.900;2022-11-09T07:07:53;47.10;;;28.27;;
22284;SDS011;11311;52.192;20.900;2022-11-09T07:10:21;54.13;;;32.92;;
22284;SDS011;11311;52.192;20.900;2022-11-09T07:12:51;48.83;;;31.52;;
22284;SDS011;11311;52.192;20.900;2022-11-09T07:15:19;57.28;;;31.75;;
22284;SDS011;11311;52.192;20.900;2022-11-09T07:17:50;55.20;;;33.70;;
22284;SDS011;11311;52.192;20.900;2022-11-09T07:20:18;46.92;;;30.88;;
22284;SDS011;11311;52.192;20.900;2022-11-09T07:22:48;50.38;;;33.28;;
22284;SDS011;11311;52.192;20.900;2022-11-09T07:25:16;57.80;;;35.70;;
22284;SDS011;11311;52.192;20.900;2022-11-09T07:27:46;55.28;;;35.50;;
22284;SDS011;11311;52.192;20.900;2022-11-09T07:30:14;50.22;;;35.17;;
22284;SDS011;11311;52.192;20.900;2022-11-09T07:32:43;54.28;;;35.28;;
22284;SDS011;11311;52.192;20.900;2022-11-09T07:35:34;54.35;;;34.47;;
22284;SDS011;11311;52.192;20.900;2022-11-09T07:38:03;51.97;;;31.60;;
22284;SDS011;11311;52.192;20.900;2022-11-09T07:40:31;47.90;;;33.83;;
22284;SDS011;11311;52.192;20.900;2022-11-09T07:43:00;56.90;;;33.47;;
22284;SDS011;11311;52.192;20.900;2022-11-09T07:45:30;47.85;;;25.33;;
22284;SDS011;11311;52.192;20.900;2022-11-09T07:48:00;52.53;;;35.53;;
22284;SDS011;11311;52.192;20.900;2022-11-09T07:50:30;53.63;;;32.30;;
22284;SDS011;11311;52.192;20.900;2022-11-09T07:53:01;46.33;;;28.60;;
22284;SDS011;11311;52.192;20.900;2022-11-09T07:55:31;46.83;;;27.77;;
22284;SDS011;11311;52.192;20.900;2022-11-09T07:58:02;44.13;;;27.55;;
22284;SDS011;11311;52.192;20.900;2022-11-09T08:00:33;52.85;;;33.30;;
22284;SDS011;11311;52.192;20.900;2022-11-09T08:05:32;34.20;;;19.83;;
22284;SDS011;11311;52.192;20.900;2022-11-09T08:08:03;37.97;;;27.17;;
22284;SDS011;11311;52.192;20.900;2022-11-09T08:10:33;54.42;;;31.15;;
22284;SDS011;11311;52.192;20.900;2022-11-09T08:13:03;49.97;;;32.15;;
22284;SDS011;11311;52.192;20.900;2022-11-09T08:15:34;46.20;;;32.33;;
22284;SDS011;11311;52.192;20.900;2022-11-09T08:18:05;37.70;;;26.85;;
22284;SDS011;11311;52.192;20.900;2022-11-09T08:20:35;45.10;;;32.00;;
22284;SDS011;11311;52.192;20.900;2022-11-09T08:23:05;40.50;;;29.42;;
22284;SDS011;11311;52.192;20.900;2022-11-09T08:28:03;38.10;;;24.60;;
22284;SDS011;11311;52.192;20.900;2022-11-09T08:30:39;44.30;;;29.27;;
22284;SDS011;11311;52.192;20.900;2022-11-09T08:33:08;47.20;;;29.60;;
22284;SDS011;11311;52.192;20.900;2022-11-09T08:35:38;44.83;;;28.67;;
22284;SDS011;11311;52.192;20.900;2022-11-09T08:38:09;45.50;;;29.85;;
22284;SDS011;11311;52.192;20.900;2022-11-09T08:40:38;39.13;;;27.45;;
22284;SDS011;11311;52.192;20.900;2022-11-09T08:43:07;36.00;;;27.75;;
22284;SDS011;11311;52.192;20.900;2022-11-09T08:45:38;45.75;;;27.92;;
22284;SDS011;11311;52.192;20.900;2022-11-09T08:48:10;37.03;;;22.75;;
22284;SDS011;11311;52.192;20.900;2022-11-09T08:50:39;37.95;;;29.65;;
22284;SDS011;11311;52.192;20.900;2022-11-09T08:53:10;38.28;;;25.88;;
22284;SDS011;11311;52.192;20.900;2022-11-09T08:55:39;42.42;;;28.55;;
22284;SDS011;11311;52.192;20.900;2022-11-09T08:58:15;40.00;;;25.83;;
22284;SDS011;11311;52.192;20.900;2022-11-09T09:00:45;40.08;;;28.42;;
22284;SDS011;11311;52.192;20.900;2022-11-09T09:03:14;41.40;;;26.38;;
22284;SDS011;11311;52.192;20.900;2022-11-09T09:05:43;34.00;;;24.02;;
22284;SDS011;11311;52.192;20.900;2022-11-09T09:08:14;32.90;;;24.60;;
22284;SDS011;11311;52.192;20.900;2022-11-09T09:10:48;35.03;;;23.60;;
22284;SDS011;11311;52.192;20.900;2022-11-09T09:13:18;35.08;;;20.95;;
22284;SDS011;11311;52.192;20.900;2022-11-09T09:15:49;24.35;;;16.55;;
22284;SDS011;11311;52.192;20.900;2022-11-09T09:18:18;35.00;;;22.05;;
22284;SDS011;11311;52.192;20.900;2022-11-09T09:20:47;28.48;;;19.55;;
22284;SDS011;11311;52.192;20.900;2022-11-09T09:23:17;31.38;;;21.67;;
22284;SDS011;11311;52.192;20.900;2022-11-09T09:25:46;33.33;;;17.67;;
22284;SDS011;11311;52.192;20.900;2022-11-09T09:28:15;34.88;;;26.77;;
22284;SDS011;11311;52.192;20.900;2022-11-09T09:30:44;36.17;;;28.38;;
22284;SDS011;11311;52.192;20.900;2022-11-09T09:33:13;34.40;;;23.33;;
22284;SDS011;11311;52.192;20.900;2022-11-09T09:35:42;31.50;;;19.67;;
22284;SDS011;11311;52.192;20.900;2022-11-09T09:38:10;37.05;;;25.33;;
22284;SDS011;11311;52.192;20.900;2022-11-09T09:40:41;39.15;;;28.48;;
22284;SDS011;11311;52.192;20.900;2022-11-09T09:43:14;35.92;;;22.13;;
22284;SDS011;11311;52.192;20.900;2022-11-09T09:45:51;39.78;;;26.17;;
22284;SDS011;11311;52.192;20.900;2022-11-09T09:48:23;34.38;;;19.20;;
22284;SDS011;11311;52.192;20.900;2022-11-09T09:50:57;36.78;;;22.40;;
22284;SDS011;11311;52.192;20.900;2022-11-09T09:53:29;42.22;;;30.55;;
22284;SDS011;11311;52.192;20.900;2022-11-09T09:56:04;40.80;;;27.83;;
22284;SDS011;11311;52.192;20.900;2022-11-09T09:58:38;38.90;;;21.08;;
22284;SDS011;11311;52.192;20.900;2022-11-09T10:01:13;31.52;;;24.00;;
22284;SDS011;11311;52.192;20.900;2022-11-09T10:03:43;34.70;;;19.58;;
22284;SDS011;11311;52.192;20.900;2022-11-09T10:06:19;37.72;;;21.02;;
22284;SDS011;11311;52.192;20.900;2022-11-09T10:08:59;32.08;;;23.30;;
22284;SDS011;11311;52.192;20.900;2022-11-09T10:11:34;40.22;;;28.15;;
22284;SDS011;11311;52.192;20.900;2022-11-09T10:17:15;38.13;;;28.67;;
22284;SDS011;11311;52.192;20.900;2022-11-09T10:19:52;45.38;;;25.25;;
22284;SDS011;11311;52.192;20.900;2022-11-09T10:22:25;37.33;;;27.17;;
22284;SDS011;11311;52.192;20.900;2022-11-09T10:24:59;42.72;;;30.77;;
22284;SDS011;11311;52.192;20.900;2022-11-09T10:27:54;40.40;;;27.92;;
22284;SDS011;11311;52.192;20.900;2022-11-09T10:30:25;36.53;;;25.63;;
22284;SDS011;11311;52.192;20.900;2022-11-09T10:32:56;41.10;;;32.42;;
22284;SDS011;11311;52.192;20.900;2022-11-09T10:35:27;42.50;;;29.17;;
22284;SDS011;11311;52.192;20.900;2022-11-09T10:37:57;38.38;;;25.85;;
22284;SDS011;11311;52.192;20.900;2022-11-09T10:40:26;38.28;;;29.30;;
22284;SDS011;11311;52.192;20.900;2022-11-09T10:43:17;35.67;;;28.10;;
22284;SDS011;11311;52.192;20.900;2022-11-09T10:46:06;39.13;;;24.17;;
22284;SDS011;11311;52.192;20.900;2022-11-09T10:48:53;39.90;;;28.25;;
22284;SDS011;11311;52.192;20.900;2022-11-09T10:51:41;38.10;;;29.02;;
22284;SDS011;11311;52.192;20.900;2022-11-09T10:54:31;34.72;;;25.15;;
22284;SDS011;11311;52.192;20.900;2022-11-09T10:57:22;33.85;;;23.33;;
22284;SDS011;11311;52.192;20.900;2022-11-09T11:00:14;32.85;;;22.10;;
22284;SDS011;11311;52.192;20.900;2022-11-09T11:03:09;36.20;;;24.50;;
22284;SDS011;11311;52.192;20.900;2022-11-09T11:06:00;29.60;;;19.60;;
22284;SDS011;11311;52.192;20.900;2022-11-09T11:08:49;35.42;;;23.40;;
22284;SDS011;11311;52.192;20.900;2022-11-09T11:11:37;35.30;;;22.13;;
22284;SDS011;11311;52.192;20.900;2022-11-09T11:14:28;29.88;;;24.65;;
22284;SDS011;11311;52.192;20.900;2022-11-09T11:17:22;30.48;;;23.15;;
22284;SDS011;11311;52.192;20.900;2022-11-09T11:20:22;35.30;;;25.50;;
22284;SDS011;11311;52.192;20.900;2022-11-09T11:23:14;33.53;;;25.13;;
22284;SDS011;11311;52.192;20.900;2022-11-09T11:26:05;32.40;;;25.95;;
22284;SDS011;11311;52.192;20.900;2022-11-09T11:29:04;43.90;;;24.63;;
22284;SDS011;11311;52.192;20.900;2022-11-09T11:31:56;39.58;;;26.67;;
22284;SDS011;11311;52.192;20.900;2022-11-09T11:34:45;36.00;;;28.35;;
22284;SDS011;11311;52.192;20.900;2022-11-09T11:37:50;31.85;;;24.45;;
22284;SDS011;11311;52.192;20.900;2022-11-09T11:40:42;35.60;;;23.85;;
22284;SDS011;11311;52.192;20.900;2022-11-09T11:43:45;35.35;;;23.58;;
22284;SDS011;11311;52.192;20.900;2022-11-09T11:46:38;33.33;;;25.38;;
22284;SDS011;11311;52.192;20.900;2022-11-09T11:49:35;36.88;;;24.67;;
22284;SDS011;11311;52.192;20.900;2022-11-09T11:52:30;28.58;;;23.10;;
22284;SDS011;11311;52.192;20.900;2022-11-09T11:55:32;34.83;;;25.30;;
22284;SDS011;11311;52.192;20.900;2022-11-09T11:58:34;36.67;;;26.08;;
22284;SDS011;11311;52.192;20.900;2022-11-09T12:01:31;31.90;;;21.60;;
22284;SDS011;11311;52.192;20.900;2022-11-09T12:04:30;32.15;;;26.60;;
22284;SDS011;11311;52.192;20.900;2022-11-09T12:07:27;39.78;;;19.00;;
22284;SDS011;11311;52.192;20.900;2022-11-09T12:10:22;25.58;;;18.17;;
22284;SDS011;11311;52.192;20.900;2022-11-09T12:13:19;29.92;;;23.45;;
22284;SDS011;11311;52.192;20.900;2022-11-09T12:16:16;24.20;;;18.60;;
22284;SDS011;11311;52.192;20.900;2022-11-09T12:19:15;36.63;;;24.25;;
22284;SDS011;11311;52.192;20.900;2022-11-09T12:22:21;35.35;;;25.75;;
22284;SDS011;11311;52.192;20.900;2022-11-09T12:25:15;29.17;;;21.98;;
22284;SDS011;11311;52.192;20.900;2022-11-09T12:28:11;26.27;;;23.17;;
22284;SDS011;11311;52.192;20.900;2022-11-09T12:31:07;29.70;;;21.67;;
22284;SDS011;11311;52.192;20.900;2022-11-09T12:34:09;25.77;;;22.40;;
22284;SDS011;11311;52.192;20.900;2022-11-09T12:37:01;26.70;;;21.92;;
22284;SDS011;11311;52.192;20.900;2022-11-09T12:39:50;35.13;;;23.20;;
22284;SDS011;11311;52.192;20.900;2022-11-09T12:42:42;27.87;;;24.87;;
22284;SDS011;11311;52.192;20.900;2022-11-09T12:45:32;24.70;;;17.00;;
22284;SDS011;11311;52.192;20.900;2022-11-09T12:48:21;28.95;;;19.83;;
22284;SDS011;11311;52.192;20.900;2022-11-09T12:51:10;31.10;;;24.90;;
22284;SDS011;11311;52.192;20.900;2022-11-09T12:53:57;35.33;;;25.48;;
22284;SDS011;11311;52.192;20.900;2022-11-09T12:56:46;28.00;;;19.35;;
22284;SDS011;11311;52.192;20.900;2022-11-09T12:59:45;22.58;;;13.90;;
22284;SDS011;11311;52.192;20.900;2022-11-09T13:02:36;32.00;;;19.02;;
22284;SDS011;11311;52.192;20.900;2022-11-09T13:05:28;32.10;;;21.20;;
22284;SDS011;11311;52.192;20.900;2022-11-09T13:08:18;31.80;;;23.90;;
22284;SDS011;11311;52.192;20.900;2022-11-09T13:11:07;34.27;;;25.80;;
22284;SDS011;11311;52.192;20.900;2022-11-09T13:20:45;29.13;;;20.00;;
22284;SDS011;11311;52.192;20.900;2022-11-09T13:23:40;34.78;;;25.27;;
22284;SDS011;11311;52.192;20.900;2022-11-09T13:26:53;35.88;;;25.50;;
22284;SDS011;11311;52.192;20.900;2022-11-09T13:29:48;37.28;;;24.98;;
22284;SDS011;11311;52.192;20.900;2022-11-09T13:32:41;35.20;;;24.00;;
22284;SDS011;11311;52.192;20.900;2022-11-09T13:36:13;37.55;;;27.70;;
22284;SDS011;11311;52.192;20.900;2022-11-09T13:42:23;38.28;;;24.70;;
22284;SDS011;11311;52.192;20.900;2022-11-09T13:45:19;41.55;;;24.50;;
22284;SDS011;11311;52.192;20.900;2022-11-09T13:51:37;28.52;;;18.23;;
22284;SDS011;11311;52.192;20.900;2022-11-09T13:54:29;40.65;;;26.30;;
22284;SDS011;11311;52.192;20.900;2022-11-09T13:57:16;33.38;;;24.75;;
22284;SDS011;11311;52.192;20.900;2022-11-09T14:00:04;33.25;;;25.35;;
22284;SDS011;11311;52.192;20.900;2022-11-09T14:03:00;32.37;;;25.77;;
22284;SDS011;11311;52.192;20.900;2022-11-09T14:05:52;34.63;;;27.70;;
22284;SDS011;11311;52.192;20.900;2022-11-09T14:08:40;38.72;;;29.45;;
22284;SDS011;11311;52.192;20.900;2022-11-09T14:11:47;35.20;;;26.77;;
22284;SDS011;11311;52.192;20.900;2022-11-09T14:14:46;36.10;;;26.90;;
22284;SDS011;11311;52.192;20.900;2022-11-09T14:17:41;32.83;;;23.75;;
22284;SDS011;11311;52.192;20.900;2022-11-09T14:20:36;33.38;;;24.50;;
22284;SDS011;11311;52.192;20.900;2022-11-09T14:23:28;37.85;;;23.80;;
22284;SDS011;11311;52.192;20.900;2022-11-09T14:26:16;35.17;;;26.75;;
22284;SDS011;11311;52.192;20.900;2022-11-09T14:29:10;35.83;;;25.25;;
22284;SDS011;11311;52.192;20.900;2022-11-09T14:31:58;39.72;;;29.20;;
22284;SDS011;11311;52.192;20.900;2022-11-09T14:34:45;37.47;;;27.52;;
22284;SDS011;11311;52.192;20.900;2022-11-09T14:37:32;41.22;;;27.10;;
22284;SDS011;11311;52.192;20.900;2022-11-09T14:40:23;36.97;;;27.33;;
22284;SDS011;11311;52.192;20.900;2022-11-09T14:43:17;37.05;;;24.77;;
22284;SDS011;11311;52.192;20.900;2022-11-09T14:46:13;32.50;;;21.05;;
22284;SDS011;11311;52.192;20.900;2022-11-09T14:49:03;41.80;;;26.90;;
22284;SDS011;11311;52.192;20.900;2022-11-09T14:51:49;33.22;;;22.98;;
22284;SDS011;11311;52.192;20.900;2022-11-09T14:54:36;36.97;;;28.35;;
22284;SDS011;11311;52.192;20.900;2022-11-09T14:57:31;40.40;;;27.00;;
22284;SDS011;11311;52.192;20.900;2022-11-09T15:00:26;35.00;;;24.83;;
22284;SDS011;11311;52.192;20.900;2022-11-09T15:03:22;37.15;;;25.52;;
22284;SDS011;11311;52.192;20.900;2022-11-09T15:06:11;38.30;;;27.80;;
22284;SDS011;11311;52.192;20.900;2022-11-09T15:09:00;40.05;;;26.58;;
22284;SDS011;11311;52.192;20.900;2022-11-09T15:11:49;43.00;;;30.98;;
22284;SDS011;11311;52.192;20.900;2022-11-09T15:14:39;47.15;;;31.02;;
22284;SDS011;11311;52.192;20.900;2022-11-09T15:17:29;43.63;;;29.63;;
22284;SDS011;11311;52.192;20.900;2022-11-09T15:20:23;46.78;;;29.52;;
22284;SDS011;11311;52.192;20.900;2022-11-09T15:23:21;48.33;;;30.58;;
22284;SDS011;11311;52.192;20.900;2022-11-09T15:26:26;43.13;;;29.20;;
22284;SDS011;11311;52.192;20.900;2022-11-09T15:29:29;43.03;;;31.80;;
22284;SDS011;11311;52.192;20.900;2022-11-09T15:32:23;46.72;;;31.05;;
22284;SDS011;11311;52.192;20.900;2022-11-09T15:35:13;45.65;;;32.58;;
22284;SDS011;11311;52.192;20.900;2022-11-09T15:38:02;46.22;;;32.47;;
22284;SDS011;11311;52.192;20.900;2022-11-09T15:40:49;50.95;;;33.10;;
22284;SDS011;11311;52.192;20.900;2022-11-09T15:43:36;46.85;;;33.70;;
22284;SDS011;11311;52.192;20.900;2022-11-09T15:46:24;45.55;;;34.63;;
22284;SDS011;11311;52.192;20.900;2022-11-09T15:49:15;45.25;;;32.15;;
22284;SDS011;11311;52.192;20.900;2022-11-09T15:52:03;40.95;;;28.40;;